Time;durP1;ratioP1;P1;durP2;ratioP2;P2;SDS_P1;SDS_P2;PMS_P1;PMS_P2;Temp;Humidity;BMP_temperature;BMP_pressure;BME280_temperature;BME280_humidity;BME280_pressure;Samples;Min_cycle;Max_cycle;Signal;HPM_P1;HPM_P2
2023/04/20 00:00:32;;;;;;;39.70;25.20;;;;;;;8.04;87.29;100475.20;131083;1253;107552;-76
2023/04/20 00:03:55;;;;;;;42.80;26.50;;;;;;;8.02;87.13;100472.91;131140;1251;107603;-77
2023/04/20 00:07:01;;;;;;;39.20;23.10;;;;;;;8.01;87.40;100473.38;131055;1253;105815;-76
2023/04/20 00:10:09;;;;;;;35.50;21.10;;;;;;;7.99;87.34;100476.87;131213;1253;107484;-76
2023/04/20 00:13:15;;;;;;;48.50;29.30;;;;;;;7.97;87.32;100473.34;131139;1251;107204;-76
2023/04/20 00:16:20;;;;;;;50.00;29.80;;;;;;;7.96;87.32;100470.06;131109;1253;106538;-77
2023/04/20 00:19:27;;;;;;;43.70;27.10;;;;;;;7.98;87.27;100471.27;131253;1253;107541;-77
2023/04/20 00:22:32;;;;;;;42.80;25.80;;;;;;;7.98;87.07;100469.70;131079;1251;107227;-78
2023/04/20 00:25:38;;;;;;;39.60;25.40;;;;;;;7.98;87.07;100471.52;131087;1253;107500;-77
2023/04/20 00:28:43;;;;;;;37.50;24.70;;;;;;;7.96;87.08;100464.68;131112;1253;107513;-77
2023/04/20 00:31:49;;;;;;;34.40;22.90;;;;;;;7.95;86.93;100466.98;131110;1250;107507;-77
2023/04/20 00:34:55;;;;;;;29.70;19.00;;;;;;;7.89;86.87;100463.92;131026;1250;106533;-77
2023/04/20 00:38:02;;;;;;;33.10;18.80;;;;;;;7.85;86.93;100462.60;131203;1253;107397;-76
2023/04/20 00:41:08;;;;;;;38.80;22.30;;;;;;;7.83;86.94;100461.92;131120;1263;107380;-76
2023/04/20 00:44:14;;;;;;;44.00;24.80;;;;;;;7.84;86.96;100459.71;131342;1251;107501;-76
2023/04/20 00:47:19;;;;;;;44.00;24.00;;;;;;;7.86;86.91;100459.73;131083;1253;107519;-77
2023/04/20 00:50:25;;;;;;;36.20;23.20;;;;;;;7.83;86.75;100456.95;131392;1253;107543;-77
2023/04/20 00:53:30;;;;;;;40.30;24.60;;;;;;;7.79;86.72;100453.05;131062;1254;107513;-77
2023/04/20 00:56:38;;;;;;;44.80;26.70;;;;;;;7.73;86.70;100456.08;131234;1253;107491;-77
2023/04/20 00:59:46;;;;;;;43.90;26.40;;;;;;;7.64;86.22;100457.91;131386;1253;107501;-75
2023/04/20 01:02:53;;;;;;;36.60;21.70;;;;;;;7.55;86.53;100455.80;131121;1251;107454;-76
2023/04/20 01:05:58;;;;;;;32.70;19.20;;;;;;;7.48;86.38;100459.70;131115;1253;107445;-77
2023/04/20 01:09:04;;;;;;;35.50;21.30;;;;;;;7.43;86.34;100459.46;131126;1253;107518;-76
2023/04/20 01:12:11;;;;;;;34.50;21.80;;;;;;;7.36;86.03;100465.02;131161;1253;107387;-77
2023/04/20 01:15:16;;;;;;;36.90;21.50;;;;;;;7.28;86.04;100466.58;131099;1253;108589;-76
2023/04/20 01:18:22;;;;;;;26.60;18.80;;;;;;;7.22;86.19;100467.38;131039;1249;107397;-76
2023/04/20 01:21:28;;;;;;;33.20;20.10;;;;;;;7.16;85.99;100466.47;131219;1251;107678;-75
2023/04/20 01:24:34;;;;;;;33.60;19.70;;;;;;;7.09;85.75;100464.90;131271;1253;107212;-76
2023/04/20 01:27:39;;;;;;;31.80;19.70;;;;;;;7.00;85.78;100465.28;131334;1253;107249;-75
2023/04/20 01:30:45;;;;;;;26.60;16.40;;;;;;;6.94;85.88;100461.52;131216;1253;107515;-76
2023/04/20 01:33:50;;;;;;;28.70;17.50;;;;;;;6.87;86.01;100463.30;131097;1253;107504;-76
2023/04/20 01:36:59;;;;;;;26.30;17.80;;;;;;;6.82;85.71;100461.44;131217;1253;107439;-75
2023/04/20 01:40:08;;;;;;;28.50;17.60;;;;;;;6.79;85.83;100461.30;131424;1251;107502;-76
2023/04/20 01:43:15;;;;;;;28.30;19.20;;;;;;;6.77;85.59;100462.17;131274;1254;107448;-76
2023/04/20 01:46:21;;;;;;;26.70;18.90;;;;;;;6.71;85.18;100460.18;131436;1253;107372;-74
2023/04/20 01:49:26;;;;;;;27.10;18.90;;;;;;;6.63;85.40;100458.30;131203;1253;107471;-78
2023/04/20 01:52:32;;;;;;;29.30;19.10;;;;;;;6.57;85.22;100453.75;131098;1251;106109;-76
2023/04/20 01:55:37;;;;;;;26.00;19.00;;;;;;;6.48;85.32;100459.35;131066;1251;107482;-76
2023/04/20 01:58:43;;;;;;;25.80;17.50;;;;;;;6.42;85.51;100462.15;131181;1251;107275;-77
2023/04/20 02:01:48;;;;;;;23.50;15.90;;;;;;;6.34;85.12;100461.16;131329;1254;106701;-76
2023/04/20 02:04:54;;;;;;;20.90;14.80;;;;;;;6.27;85.21;100461.88;131297;1251;106676;-76
2023/04/20 02:07:59;;;;;;;23.20;16.60;;;;;;;6.22;85.14;100461.38;131303;1250;106800;-77
2023/04/20 02:11:05;;;;;;;27.70;19.10;;;;;;;6.22;85.05;100460.55;131350;1253;107519;-76
2023/04/20 02:14:14;;;;;;;32.30;20.00;;;;;;;6.20;84.64;100463.33;131304;1251;107416;-76
2023/04/20 02:17:20;;;;;;;36.60;22.60;;;;;;;6.17;84.55;100467.27;131430;1254;107366;-75
2023/04/20 02:20:26;;;;;;;37.70;21.50;;;;;;;6.12;84.47;100469.29;131423;1251;107211;-74
2023/04/20 02:23:31;;;;;;;29.40;19.50;;;;;;;6.03;84.67;100469.40;131302;1255;107591;-77
2023/04/20 02:26:37;;;;;;;33.50;19.90;;;;;;;5.96;84.19;100470.48;131193;1253;106647;-76
2023/04/20 02:29:43;;;;;;;33.60;19.90;;;;;;;5.88;84.23;100471.39;131167;1253;107449;-76
2023/04/20 02:32:53;;;;;;;33.20;20.10;;;;;;;5.81;84.32;100474.79;131293;1251;107336;-75
2023/04/20 02:35:58;;;;;;;27.20;16.50;;;;;;;5.73;84.32;100474.99;131592;1253;105944;-75
2023/04/20 02:39:04;;;;;;;24.50;16.20;;;;;;;5.64;84.07;100471.31;131160;1257;107381;-77
2023/04/20 02:42:12;;;;;;;31.90;19.40;;;;;;;5.58;84.37;100473.35;131449;1253;107350;-77
2023/04/20 02:45:20;;;;;;;35.70;25.50;;;;;;;5.57;84.23;100473.98;131357;1253;107308;-75
2023/04/20 02:48:26;;;;;;;38.00;26.20;;;;;;;5.54;84.30;100473.11;131425;1254;107496;-78
2023/04/20 02:51:32;;;;;;;32.50;22.10;;;;;;;5.51;84.05;100477.21;131410;1253;107380;-77
2023/04/20 02:54:37;;;;;;;32.90;23.70;;;;;;;5.46;84.20;100478.48;131323;1255;106251;-76
2023/04/20 02:57:43;;;;;;;51.50;38.70;;;;;;;5.44;84.31;100485.52;131310;1251;107431;-76
2023/04/20 03:00:49;;;;;;;34.30;25.50;;;;;;;5.40;84.12;100482.23;131566;1250;107426;-76
2023/04/20 03:03:54;;;;;;;37.60;26.20;;;;;;;5.37;84.00;100481.96;131146;1253;107499;-76
2023/04/20 03:07:00;;;;;;;34.00;23.40;;;;;;;5.33;84.00;100482.45;131148;1253;107431;-76
2023/04/20 03:10:10;;;;;;;29.80;20.30;;;;;;;5.27;83.88;100479.35;131097;1253;107342;-76
2023/04/20 03:13:28;;;;;;;27.10;18.60;;;;;;;5.25;83.88;100479.65;131246;1254;107425;-77
2023/04/20 03:16:40;;;;;;;32.50;19.90;;;;;;;5.27;83.92;100479.34;131152;1253;107210;-76
2023/04/20 03:19:46;;;;;;;36.40;21.00;;;;;;;5.29;83.64;100483.73;131228;1253;107397;-76
2023/04/20 03:22:51;;;;;;;39.60;22.80;;;;;;;5.28;83.66;100486.13;131198;1254;107217;-77
2023/04/20 03:26:00;;;;;;;39.20;23.10;;;;;;;5.25;83.42;100485.30;131286;1253;108149;-76
2023/04/20 03:29:26;;;;;;;37.50;22.60;;;;;;;5.22;83.35;100481.80;131188;1254;107156;-76
2023/04/20 03:32:32;;;;;;;41.60;24.20;;;;;;;5.19;83.28;100481.35;131175;1253;107407;-77
2023/04/20 03:35:38;;;;;;;37.40;22.80;;;;;;;5.15;83.32;100485.31;131281;1251;107257;-76
2023/04/20 03:38:44;;;;;;;31.00;20.30;;;;;;;5.11;83.37;100480.98;131209;1253;107523;-75
2023/04/20 03:41:50;;;;;;;24.90;17.50;;;;;;;5.08;83.27;100485.48;131123;1253;107353;-76
2023/04/20 03:44:55;;;;;;;23.10;15.80;;;;;;;5.07;83.38;100498.26;131062;1253;107512;-76
2023/04/20 03:48:01;;;;;;;25.70;17.30;;;;;;;5.07;83.28;100495.98;130995;1253;106523;-75
2023/04/20 03:51:07;;;;;;;26.80;18.20;;;;;;;5.07;83.57;100500.56;131330;1253;107411;-75
2023/04/20 03:54:13;;;;;;;26.20;18.20;;;;;;;5.15;83.53;100511.60;131026;1255;107217;-76
2023/04/20 03:57:18;;;;;;;27.60;18.20;;;;;;;5.24;83.31;100509.58;131213;1254;106663;-76
2023/04/20 04:00:24;;;;;;;25.50;17.70;;;;;;;5.29;83.32;100507.59;131085;1251;107352;-76
2023/04/20 04:03:35;;;;;;;27.20;18.00;;;;;;;5.37;83.26;100504.23;131291;1251;107330;-76
2023/04/20 04:06:40;;;;;;;30.70;19.70;;;;;;;5.45;83.39;100507.68;131601;1253;107342;-76
2023/04/20 04:09:47;;;;;;;30.70;20.10;;;;;;;5.52;83.47;100503.26;131547;1253;107428;-76
2023/04/20 04:12:53;;;;;;;32.50;18.70;;;;;;;5.59;83.48;100499.38;131407;1253;107318;-75
2023/04/20 04:15:59;;;;;;;35.40;20.60;;;;;;;5.68;83.62;100498.33;131359;1255;107431;-75
2023/04/20 04:19:05;;;;;;;37.20;21.70;;;;;;;5.78;83.46;100500.21;131292;1254;107488;-74
2023/04/20 04:22:11;;;;;;;34.10;21.80;;;;;;;5.91;83.63;100500.83;131096;1253;107503;-76
2023/04/20 04:25:22;;;;;;;36.40;21.30;;;;;;;6.08;83.48;100499.39;131158;1264;107313;-75
2023/04/20 04:28:28;;;;;;;33.90;20.30;;;;;;;6.21;83.70;100499.48;131226;1254;107191;-76
2023/04/20 04:31:43;;;;;;;27.80;18.70;;;;;;;6.32;83.57;100497.73;131161;1253;107452;-76
2023/04/20 04:34:53;;;;;;;28.40;19.80;;;;;;;6.42;83.80;100495.69;131384;1253;107337;-74
2023/04/20 04:37:59;;;;;;;62.20;34.40;;;;;;;6.53;84.09;100497.48;131382;1253;107527;-74
2023/04/20 04:41:06;;;;;;;42.80;25.40;;;;;;;6.63;83.99;100502.05;131368;1262;107356;-74
2023/04/20 04:44:14;;;;;;;43.70;24.20;;;;;;;6.71;83.78;100509.73;131105;1251;107388;-75
2023/04/20 04:47:21;;;;;;;44.20;25.90;;;;;;;6.80;83.90;100507.59;131264;1251;107345;-75
2023/04/20 04:50:27;;;;;;;44.40;26.20;;;;;;;6.90;84.12;100509.55;131089;1251;107106;-76
2023/04/20 04:53:33;;;;;;;46.80;28.30;;;;;;;7.00;84.22;100510.89;131196;1256;106456;-76
2023/04/20 04:56:38;;;;;;;48.00;28.70;;;;;;;7.11;84.12;100512.36;131079;1253;107385;-76
2023/04/20 04:59:44;;;;;;;49.50;30.30;;;;;;;7.19;84.45;100512.92;131053;1262;107473;-76
2023/04/20 05:02:49;;;;;;;44.60;28.20;;;;;;;7.26;84.32;100517.83;131206;1253;106535;-77
2023/04/20 05:05:55;;;;;;;43.90;26.30;;;;;;;7.33;84.46;100519.95;131302;1253;107483;-74
2023/04/20 05:09:00;;;;;;;30.30;20.80;;;;;;;7.35;84.44;100521.33;131279;1264;107591;-75
2023/04/20 05:12:06;;;;;;;28.90;20.20;;;;;;;7.32;84.61;100522.46;131132;1264;108627;-76
2023/04/20 05:15:12;;;;;;;34.30;23.20;;;;;;;7.35;85.07;100523.48;131104;1253;107492;-75
2023/04/20 05:18:17;;;;;;;31.50;23.60;;;;;;;7.46;85.35;100521.67;131071;1254;107475;-76
2023/04/20 05:21:23;;;;;;;30.60;22.60;;;;;;;7.67;85.25;100523.19;131038;1253;107531;-76
2023/04/20 05:24:29;;;;;;;34.00;22.80;;;;;;;7.87;85.33;100528.23;131021;1256;107520;-76
2023/04/20 05:27:35;;;;;;;37.00;25.50;;;;;;;8.03;85.58;100527.55;131140;1253;107966;-76
2023/04/20 05:30:41;;;;;;;33.80;24.20;;;;;;;8.17;85.54;100526.60;131182;1254;107531;-76
2023/04/20 05:33:46;;;;;;;28.60;19.70;;;;;;;8.20;85.96;100531.63;131339;1254;105482;-76
2023/04/20 05:36:53;;;;;;;25.40;17.00;;;;;;;8.27;86.13;100534.52;131319;1261;107507;-75
2023/04/20 05:39:59;;;;;;;23.90;18.10;;;;;;;8.39;86.54;100535.30;131261;1260;107368;-74
2023/04/20 05:43:05;;;;;;;22.70;17.40;;;;;;;8.58;86.75;100536.22;131456;1251;107531;-74
2023/04/20 05:46:10;;;;;;;24.20;17.00;;;;;;;8.77;86.58;100541.48;131295;1252;107613;-75
2023/04/20 05:49:16;;;;;;;22.60;16.80;;;;;;;8.98;86.55;100545.78;131097;1253;106652;-74
2023/04/20 05:52:21;;;;;;;23.70;16.50;;;;;;;9.16;86.63;100547.06;131231;1263;107532;-74
2023/04/20 05:55:27;;;;;;;23.30;16.50;;;;;;;9.20;86.37;100547.23;131226;1253;107533;-76
2023/04/20 05:58:36;;;;;;;24.20;15.00;;;;;;;9.28;86.32;100550.05;131170;1258;107414;-75
2023/04/20 06:01:41;;;;;;;24.90;16.40;;;;;;;9.52;86.60;100551.80;131205;1260;107574;-75
2023/04/20 06:04:47;;;;;;;22.60;16.10;;;;;;;9.71;86.51;100550.29;131088;1253;106500;-75
2023/04/20 06:07:52;;;;;;;24.00;17.00;;;;;;;9.87;86.41;100553.86;131100;1254;106499;-75
2023/04/20 06:10:58;;;;;;;22.90;16.80;;;;;;;9.91;86.03;100551.66;131058;1254;107513;-77
2023/04/20 06:14:04;;;;;;;24.50;16.50;;;;;;;9.90;86.45;100554.40;131165;1254;107458;-76
2023/04/20 06:17:09;;;;;;;21.80;15.60;;;;;;;9.98;86.29;100556.34;131031;1253;107598;-76
2023/04/20 06:20:15;;;;;;;23.30;15.60;;;;;;;10.09;86.42;100555.52;131099;1253;107347;-74
2023/04/20 06:23:21;;;;;;;21.80;15.80;;;;;;;10.15;86.18;100556.77;131360;1254;108063;-74
2023/04/20 06:26:26;;;;;;;20.90;15.80;;;;;;;10.24;86.49;100553.80;131233;1253;107527;-75
2023/04/20 06:29:32;;;;;;;22.80;16.20;;;;;;;10.33;86.39;100554.04;131396;1256;107514;-75
2023/04/20 06:32:37;;;;;;;23.20;17.00;;;;;;;10.45;86.43;100553.92;131414;1254;107586;-75
2023/04/20 06:35:43;;;;;;;24.90;17.20;;;;;;;10.57;86.27;100557.64;131133;1250;107515;-75
2023/04/20 06:38:49;;;;;;;20.20;15.40;;;;;;;10.64;86.47;100557.84;131094;1253;107366;-75
2023/04/20 06:41:55;;;;;;;19.50;13.60;;;;;;;10.78;86.53;100561.20;131146;1254;107360;-75
2023/04/20 06:45:01;;;;;;;18.80;13.40;;;;;;;11.00;86.67;100559.04;131176;1253;107476;-75
2023/04/20 06:48:07;;;;;;;22.20;14.10;;;;;;;11.27;86.26;100560.54;131321;1263;107508;-74
2023/04/20 06:51:13;;;;;;;18.50;14.00;;;;;;;11.42;85.86;100554.10;131459;1254;107612;-75
2023/04/20 06:54:19;;;;;;;16.40;13.30;;;;;;;11.57;85.80;100556.83;131135;1254;107464;-75
2023/04/20 06:57:25;;;;;;;19.40;13.60;;;;;;;11.83;86.10;100559.67;131377;1263;106517;-75
2023/04/20 07:00:30;;;;;;;18.00;13.70;;;;;;;11.96;85.00;100558.93;131069;1254;107296;-75
2023/04/20 07:03:36;;;;;;;20.60;14.80;;;;;;;12.12;85.80;100565.14;131242;1254;107527;-75
2023/04/20 07:06:42;;;;;;;20.20;12.90;;;;;;;12.30;85.59;100568.29;131104;1263;106243;-75
2023/04/20 07:09:48;;;;;;;19.40;11.50;;;;;;;12.43;85.13;100570.05;131085;1253;108085;-75
2023/04/20 07:12:53;;;;;;;12.70;10.50;;;;;;;12.51;84.56;100566.13;131148;1262;107432;-75
2023/04/20 07:15:59;;;;;;;15.10;10.60;;;;;;;12.72;85.07;100568.98;131111;1253;107539;-75
2023/04/20 07:19:05;;;;;;;14.10;10.30;;;;;;;12.83;83.28;100564.65;131248;1254;107518;-75
2023/04/20 07:22:10;;;;;;;24.70;20.20;;;;;;;12.83;83.80;100571.08;131359;1253;107592;-75
2023/04/20 07:25:16;;;;;;;18.60;14.00;;;;;;;12.87;84.30;100573.27;131179;1253;107447;-75
2023/04/20 07:28:22;;;;;;;16.20;12.00;;;;;;;12.99;83.90;100578.35;131464;1253;107493;-75
2023/04/20 07:31:27;;;;;;;17.70;10.60;;;;;;;13.05;82.98;100579.48;131263;1253;107505;-76
2023/04/20 07:34:33;;;;;;;14.70;9.10;;;;;;;13.08;83.19;100575.91;131434;1253;107300;-75
2023/04/20 07:37:38;;;;;;;15.50;8.60;;;;;;;13.24;83.18;100581.80;131367;1254;107406;-75
2023/04/20 07:40:44;;;;;;;13.60;8.20;;;;;;;13.45;82.37;100580.71;131310;1251;108445;-75
2023/04/20 07:43:50;;;;;;;15.30;8.60;;;;;;;13.53;81.99;100582.95;131131;1254;106661;-75
2023/04/20 07:46:56;;;;;;;17.50;9.90;;;;;;;13.64;81.64;100580.04;131272;1254;106246;-74
2023/04/20 07:50:02;;;;;;;16.30;9.00;;;;;;;13.72;81.05;100579.99;131236;1254;106692;-75
2023/04/20 07:53:07;;;;;;;15.40;9.50;;;;;;;13.79;81.13;100584.00;131429;1254;107356;-75
2023/04/20 07:56:13;;;;;;;17.00;10.80;;;;;;;13.96;80.93;100582.53;131414;1251;108124;-74
2023/04/20 07:59:18;;;;;;;15.70;8.20;;;;;;;14.05;80.75;100580.29;131491;1263;107533;-74
2023/04/20 08:02:24;;;;;;;17.30;9.10;;;;;;;14.05;80.24;100582.53;131431;1252;105745;-74
2023/04/20 08:05:30;;;;;;;14.80;8.70;;;;;;;14.06;80.24;100582.30;131266;1263;107551;-75
2023/04/20 08:08:36;;;;;;;14.00;9.80;;;;;;;14.09;80.38;100578.16;131174;1253;107660;-74
2023/04/20 08:11:41;;;;;;;16.40;9.50;;;;;;;14.18;80.42;100582.20;131080;1263;107536;-74
2023/04/20 08:14:46;;;;;;;22.20;13.20;;;;;;;14.25;80.08;100582.92;131265;1263;105558;-74
2023/04/20 08:17:53;;;;;;;32.70;21.40;;;;;;;14.31;79.93;100584.54;131372;1251;107519;-74
2023/04/20 08:20:58;;;;;;;17.90;10.70;;;;;;;14.38;79.65;100587.60;131340;1252;107421;-74
2023/04/20 08:24:04;;;;;;;20.30;10.40;;;;;;;14.46;79.47;100586.29;131175;1261;107226;-74
2023/04/20 08:27:10;;;;;;;17.40;8.60;;;;;;;14.59;78.78;100586.06;131352;1253;107498;-74
2023/04/20 08:30:16;;;;;;;29.90;18.20;;;;;;;14.70;78.91;100587.69;131329;1253;107396;-74
2023/04/20 08:33:22;;;;;;;17.40;10.20;;;;;;;14.83;78.82;100588.48;131377;1263;107524;-74
2023/04/20 08:36:28;;;;;;;15.40;6.80;;;;;;;15.02;78.42;100589.09;131383;1253;107345;-74
2023/04/20 08:39:33;;;;;;;16.50;7.30;;;;;;;15.16;77.74;100587.83;131336;1254;109307;-75
2023/04/20 08:42:39;;;;;;;13.70;6.40;;;;;;;15.32;77.21;100587.58;131465;1253;107510;-74
2023/04/20 08:45:49;;;;;;;17.90;8.00;;;;;;;15.48;76.87;100587.02;131330;1254;107609;-74
2023/04/20 08:48:56;;;;;;;16.50;9.40;;;;;;;15.61;76.14;100583.17;131173;1253;107502;-74
2023/04/20 08:52:01;;;;;;;23.50;10.10;;;;;;;15.72;76.43;100579.05;131138;1254;106523;-75
2023/04/20 08:55:08;;;;;;;21.70;6.20;;;;;;;15.89;76.45;100579.45;131356;1251;107481;-74
2023/04/20 08:58:14;;;;;;;14.50;7.60;;;;;;;16.03;75.26;100577.80;131175;1251;107217;-74
2023/04/20 09:01:28;;;;;;;14.80;5.30;;;;;;;16.14;74.87;100582.27;131312;1263;107539;-74
2023/04/20 09:04:34;;;;;;;11.20;4.90;;;;;;;16.16;74.63;100582.62;131372;1254;107510;-75
2023/04/20 09:07:40;;;;;;;15.60;5.50;;;;;;;16.14;74.06;100584.09;131424;1251;105691;-74
2023/04/20 09:10:46;;;;;;;15.10;6.50;;;;;;;16.08;74.07;100580.00;131247;1254;107699;-75
2023/04/20 09:14:04;;;;;;;23.90;14.10;;;;;;;16.04;73.26;100583.73;131590;1251;107561;-74
2023/04/20 09:17:13;;;;;;;17.20;7.10;;;;;;;16.00;73.27;100581.23;131411;1254;106759;-75
2023/04/20 09:20:28;;;;;;;16.20;6.20;;;;;;;16.01;73.25;100580.60;131158;1253;107498;-74
2023/04/20 09:23:34;;;;;;;14.40;5.40;;;;;;;15.97;72.45;100583.69;131138;1255;107338;-74
2023/04/20 09:26:39;;;;;;;32.60;23.00;;;;;;;15.84;71.72;100582.02;131221;1254;107511;-74
2023/04/20 09:29:56;;;;;;;18.90;7.30;;;;;;;15.77;72.31;100580.35;131500;1263;106525;-74
2023/04/20 09:33:06;;;;;;;13.00;5.80;;;;;;;15.74;72.01;100578.73;131460;1254;107211;-74
2023/04/20 09:36:12;;;;;;;13.90;6.00;;;;;;;15.74;72.15;100578.16;131210;1255;107371;-75
2023/04/20 09:39:19;;;;;;;33.30;26.50;;;;;;;15.73;71.84;100581.84;131354;1254;106440;-75
2023/04/20 09:42:28;;;;;;;16.80;11.00;;;;;;;15.77;71.38;100582.70;131421;1263;107356;-75
2023/04/20 09:45:35;;;;;;;12.70;7.20;;;;;;;15.78;71.69;100580.54;131395;1251;107211;-76
2023/04/20 09:48:41;;;;;;;61.90;49.20;;;;;;;15.85;71.21;100582.37;131433;1254;107569;-76
2023/04/20 09:51:47;;;;;;;24.50;16.10;;;;;;;15.98;71.16;100582.73;131482;1254;107447;-76
2023/04/20 09:54:52;;;;;;;16.30;7.30;;;;;;;16.09;70.10;100576.57;131125;1253;107324;-75
2023/04/20 09:57:58;;;;;;;15.60;6.70;;;;;;;16.18;70.17;100564.16;131233;1253;146586;-76
2023/04/20 10:01:04;;;;;;;10.90;6.00;;;;;;;16.33;70.52;100560.02;131393;1254;107539;-75
2023/04/20 10:04:12;;;;;;;13.00;4.10;;;;;;;16.51;69.86;100558.29;131189;1263;106898;-75
2023/04/20 10:07:25;;;;;;;16.00;5.70;;;;;;;16.56;68.90;100561.30;131160;1253;107495;-76
2023/04/20 10:10:42;;;;;;;14.80;5.90;;;;;;;16.55;69.23;100559.73;131101;1253;107485;-76
2023/04/20 10:13:47;;;;;;;13.40;6.00;;;;;;;16.62;69.29;100561.61;131125;1251;108156;-76
2023/04/20 10:17:02;;;;;;;10.40;5.20;;;;;;;16.71;68.90;100561.60;131219;1254;107498;-75
2023/04/20 10:20:20;;;;;;;12.60;4.70;;;;;;;16.81;68.84;100557.53;131233;1254;107378;-75
2023/04/20 10:23:25;;;;;;;17.30;5.50;;;;;;;16.89;68.37;100558.94;131208;1254;107461;-75
2023/04/20 10:26:39;;;;;;;14.90;5.60;;;;;;;16.99;67.82;100556.70;131424;1264;107521;-75
2023/04/20 10:29:45;;;;;;;15.90;5.10;;;;;;;17.06;67.43;100551.98;131262;1253;106515;-75
2023/04/20 10:32:50;;;;;;;12.60;3.80;;;;;;;17.07;66.62;100548.49;131377;1253;107442;-75
2023/04/20 10:35:58;;;;;;;15.00;5.30;;;;;;;17.08;66.58;100546.23;131213;1257;107386;-75
2023/04/20 10:39:15;;;;;;;15.90;4.00;;;;;;;17.12;66.29;100542.30;131323;1251;108341;-75
2023/04/20 10:42:21;;;;;;;12.60;4.80;;;;;;;17.16;66.31;100539.33;131374;1251;108058;-75
2023/04/20 10:45:37;;;;;;;12.60;3.70;;;;;;;17.20;66.14;100538.83;131470;1253;107514;-75
2023/04/20 10:48:52;;;;;;;19.20;5.10;;;;;;;17.16;65.56;100538.45;131434;1251;107283;-75
2023/04/20 10:51:58;;;;;;;17.00;4.90;;;;;;;17.13;64.85;100541.04;131491;1253;105915;-74
2023/04/20 10:55:05;;;;;;;8.30;4.80;;;;;;;17.11;64.35;100537.02;131359;1254;107214;-74
2023/04/20 10:58:20;;;;;;;11.10;4.70;;;;;;;17.14;64.70;100541.54;131389;1254;107496;-74
2023/04/20 11:01:25;;;;;;;21.30;9.60;;;;;;;17.21;62.92;100546.90;131396;1263;108323;-75
2023/04/20 11:04:35;;;;;;;14.40;5.20;;;;;;;17.29;63.25;100546.16;131451;1254;107381;-75
2023/04/20 11:07:53;;;;;;;11.50;4.40;;;;;;;17.40;63.54;100546.34;131387;1254;107533;-74
2023/04/20 11:10:58;;;;;;;13.30;4.00;;;;;;;17.55;62.76;100540.35;131470;1254;106405;-75
2023/04/20 11:14:11;;;;;;;16.00;5.10;;;;;;;17.67;61.76;100540.66;131393;1254;107562;-74
2023/04/20 11:17:17;;;;;;;6.70;3.00;;;;;;;17.73;61.11;100539.27;131420;1253;107387;-75
2023/04/20 11:20:22;;;;;;;12.40;3.90;;;;;;;17.76;61.95;100543.73;131416;1263;107494;-74
2023/04/20 11:23:38;;;;;;;8.00;3.10;;;;;;;17.80;61.08;100543.04;131227;1263;106026;-74
2023/04/20 11:26:44;;;;;;;10.40;3.30;;;;;;;17.76;61.05;100540.63;131273;1253;105522;-74
2023/04/20 11:29:58;;;;;;;11.90;4.60;;;;;;;17.71;61.02;100542.94;131519;1261;107519;-75
2023/04/20 11:33:04;;;;;;;13.20;4.10;;;;;;;17.64;60.96;100543.13;131244;1261;107502;-75
2023/04/20 11:36:20;;;;;;;13.10;4.30;;;;;;;17.62;60.66;100542.61;131212;1254;106529;-74
2023/04/20 11:39:28;;;;;;;11.50;4.10;;;;;;;17.58;60.62;100544.52;131162;1262;106030;-74
2023/04/20 11:42:34;;;;;;;10.90;4.30;;;;;;;17.59;60.41;100546.16;131289;1251;107112;-75
2023/04/20 11:45:40;;;;;;;8.70;3.40;;;;;;;17.61;59.72;100547.86;131435;1253;107405;-75
2023/04/20 11:48:46;;;;;;;11.00;4.30;;;;;;;17.63;59.60;100550.55;131416;1254;107615;-74
2023/04/20 11:51:52;;;;;;;14.40;7.10;;;;;;;17.66;58.89;100544.27;131425;1251;107314;-76
2023/04/20 11:54:57;;;;;;;13.90;7.30;;;;;;;17.70;59.40;100539.83;131367;1253;107363;-77
2023/04/20 11:58:03;;;;;;;14.40;6.80;;;;;;;17.75;59.20;100540.77;131400;1254;107455;-77
2023/04/20 12:01:09;;;;;;;13.30;7.40;;;;;;;17.77;59.13;100534.23;131418;1251;106236;-76
2023/04/20 12:04:14;;;;;;;11.50;4.90;;;;;;;17.81;58.97;100534.27;131376;1252;107528;-76
2023/04/20 12:07:21;;;;;;;27.90;16.90;;;;;;;17.85;59.00;100533.39;131271;1250;106446;-76
2023/04/20 12:10:27;;;;;;;18.70;12.10;;;;;;;17.92;58.98;100528.02;131104;1253;107502;-77
2023/04/20 12:13:32;;;;;;;11.80;4.80;;;;;;;17.95;58.48;100525.55;131337;1249;107502;-76
2023/04/20 12:16:38;;;;;;;14.90;6.50;;;;;;;18.00;58.50;100520.64;131263;1249;107363;-76
2023/04/20 12:19:43;;;;;;;8.20;3.60;;;;;;;18.12;57.44;100519.08;131301;1263;105805;-77
2023/04/20 12:22:49;;;;;;;14.20;4.10;;;;;;;18.23;57.34;100515.63;131316;1255;107501;-76
2023/04/20 12:25:54;;;;;;;8.50;3.00;;;;;;;18.29;56.64;100511.21;131482;1253;107510;-76
2023/04/20 12:29:00;;;;;;;8.70;2.70;;;;;;;18.32;56.52;100508.67;131538;1254;107402;-77
2023/04/20 12:32:06;;;;;;;10.90;3.90;;;;;;;18.29;56.54;100506.60;131366;1253;107467;-76
2023/04/20 12:35:11;;;;;;;11.40;3.50;;;;;;;18.27;56.27;100501.77;131229;1251;107501;-76
2023/04/20 12:38:17;;;;;;;11.60;2.90;;;;;;;18.27;56.28;100503.81;131152;1254;107541;-76
2023/04/20 12:41:22;;;;;;;16.90;8.60;;;;;;;18.23;55.74;100500.75;131155;1253;107476;-76
2023/04/20 12:44:28;;;;;;;27.10;16.00;;;;;;;18.17;56.48;100507.73;131358;1254;107223;-76
2023/04/20 12:47:33;;;;;;;17.40;10.80;;;;;;;18.14;56.37;100500.27;131166;1253;107509;-76
2023/04/20 12:50:39;;;;;;;12.10;6.20;;;;;;;18.13;56.73;100498.26;131121;1253;106497;-76
2023/04/20 12:53:44;;;;;;;17.60;10.20;;;;;;;18.14;56.86;100498.56;131179;1254;107206;-76
2023/04/20 12:56:50;;;;;;;14.40;7.00;;;;;;;18.18;56.76;100495.93;131420;1253;107514;-76
2023/04/20 12:59:56;;;;;;;17.10;9.00;;;;;;;18.20;56.79;100495.83;131505;1253;107605;-76
2023/04/20 13:03:01;;;;;;;11.00;6.00;;;;;;;18.26;56.73;100493.25;131304;1253;107510;-76
2023/04/20 13:06:07;;;;;;;8.50;3.50;;;;;;;18.31;56.45;100488.30;131062;1253;106457;-76
2023/04/20 13:09:13;;;;;;;12.70;4.10;;;;;;;18.36;55.84;100485.88;131144;1251;107485;-76
2023/04/20 13:12:18;;;;;;;10.10;3.40;;;;;;;18.37;56.00;100486.26;131113;1253;107341;-76
2023/04/20 13:15:24;;;;;;;7.10;3.00;;;;;;;18.41;55.71;100480.16;131175;1251;107520;-76
2023/04/20 13:18:30;;;;;;;10.10;3.00;;;;;;;18.49;55.95;100476.30;131100;1253;107629;-76
2023/04/20 13:21:36;;;;;;;30.30;17.60;;;;;;;18.58;55.32;100472.83;131220;1251;106324;-76
2023/04/20 13:24:41;;;;;;;17.50;10.40;;;;;;;18.70;55.22;100466.55;131391;1253;107492;-76
2023/04/20 13:27:46;;;;;;;8.80;4.50;;;;;;;18.82;54.86;100466.17;131340;1253;107495;-75
2023/04/20 13:30:52;;;;;;;14.70;4.70;;;;;;;18.82;54.32;100461.85;131294;1253;107497;-75
2023/04/20 13:33:58;;;;;;;8.30;3.30;;;;;;;18.73;53.99;100463.83;131395;1253;107310;-75
2023/04/20 13:37:04;;;;;;;12.00;3.50;;;;;;;18.65;53.82;100473.34;131074;1251;107498;-75
2023/04/20 13:40:11;;;;;;;8.20;2.90;;;;;;;18.55;53.89;100473.77;131372;1250;107341;-75
2023/04/20 13:43:16;;;;;;;13.80;5.00;;;;;;;18.49;53.94;100473.27;131414;1253;107537;-75
2023/04/20 13:46:22;;;;;;;7.50;3.60;;;;;;;18.60;54.29;100476.52;131452;1253;105803;-75
2023/04/20 13:49:27;;;;;;;12.70;3.80;;;;;;;18.78;53.72;100473.91;131370;1253;107555;-76
2023/04/20 13:52:33;;;;;;;8.00;3.00;;;;;;;18.94;53.79;100474.08;131440;1253;107491;-75
2023/04/20 13:55:38;;;;;;;9.50;3.40;;;;;;;19.03;52.47;100469.03;131371;1253;107494;-75
2023/04/20 13:58:44;;;;;;;8.80;2.70;;;;;;;18.90;49.64;100463.54;131441;1257;108110;-75